createdAt,value
2018-12-01T00:00:43.884Z,0.00
2018-12-01T00:01:43.901Z,0.00
2018-12-01T00:02:43.921Z,0.00
2018-12-01T00:03:43.938Z,0.00
2018-12-01T00:04:43.955Z,0.00
2018-12-01T00:05:43.973Z,0.00
2018-12-01T00:06:43.991Z,0.00
2018-12-01T00:07:44.007Z,0.00
2018-12-01T00:08:44.026Z,0.00
2018-12-01T00:09:44.046Z,0.00
2018-12-01T00:10:44.065Z,0.00
2018-12-01T00:11:44.078Z,0.00
2018-12-01T00:12:44.099Z,0.00
2018-12-01T00:13:44.113Z,0.00
2018-12-01T00:14:44.130Z,0.00
2018-12-01T00:15:44.148Z,0.00
2018-12-01T00:16:44.165Z,0.00
2018-12-01T00:17:44.182Z,0.00
2018-12-01T00:18:44.202Z,0.00
2018-12-01T00:19:44.220Z,0.00
2018-12-01T00:20:44.238Z,0.00
2018-12-01T00:21:44.253Z,0.00
2018-12-01T00:22:44.271Z,0.00
2018-12-01T00:23:44.287Z,0.00
2018-12-01T00:24:44.308Z,0.00
2018-12-01T00:25:44.321Z,0.00
2018-12-01T00:26:44.342Z,0.00
2018-12-01T00:27:44.357Z,0.00
2018-12-01T00:28:44.374Z,0.00
2018-12-01T00:29:44.394Z,0.00
2018-12-01T00:30:44.410Z,0.00
2018-12-01T00:31:44.379Z,0.00
2018-12-01T00:32:44.397Z,0.00
2018-12-01T00:33:44.416Z,0.00
2018-12-01T00:34:44.433Z,0.00
2018-12-01T00:35:44.449Z,0.00
2018-12-01T00:36:44.468Z,0.00
2018-12-01T00:37:44.487Z,0.00
2018-12-01T00:38:44.500Z,0.00
2018-12-01T00:39:44.519Z,0.00
2018-12-01T00:40:44.536Z,0.00
2018-12-01T00:41:44.559Z,0.00
2018-12-01T00:42:44.573Z,0.00
2018-12-01T00:43:44.590Z,0.00
2018-12-01T00:44:44.605Z,0.00
2018-12-01T00:45:44.623Z,0.00
2018-12-01T00:46:44.648Z,0.00
2018-12-01T00:47:44.659Z,0.00
2018-12-01T00:48:44.675Z,0.00
2018-12-01T00:49:44.692Z,0.00
2018-12-01T00:50:44.710Z,0.00
2018-12-01T00:51:44.724Z,0.00
2018-12-01T00:52:44.744Z,0.00
2018-12-01T00:53:44.764Z,0.00
2018-12-01T00:54:44.777Z,0.00
2018-12-01T00:55:44.795Z,0.00
2018-12-01T00:56:44.812Z,0.00
2018-12-01T00:57:44.832Z,0.00
2018-12-01T00:58:44.848Z,0.00
2018-12-01T00:59:44.866Z,0.00
2018-12-01T01:00:44.885Z,0.00
2018-12-01T01:01:44.899Z,0.00
2018-12-01T01:02:44.917Z,0.00
2018-12-01T01:03:44.935Z,0.00
2018-12-01T01:04:44.952Z,0.00
2018-12-01T01:05:44.971Z,0.00
2018-12-01T01:06:44.986Z,0.00
2018-12-01T01:07:45.003Z,0.00
2018-12-01T01:08:45.022Z,0.00
2018-12-01T01:09:45.036Z,0.00
2018-12-01T01:10:45.054Z,0.00
2018-12-01T01:11:45.078Z,0.00
2018-12-01T01:12:45.092Z,0.00
2018-12-01T01:13:45.106Z,0.00
2018-12-01T01:14:45.123Z,0.00
2018-12-01T01:15:45.138Z,0.00
2018-12-01T01:16:45.159Z,0.00
2018-12-01T01:17:45.175Z,0.00
2018-12-01T01:18:45.191Z,0.00
2018-12-01T01:19:45.209Z,0.00
2018-12-01T01:20:45.229Z,0.00
2018-12-01T01:21:45.243Z,0.00
2018-12-01T01:22:45.260Z,0.00
2018-12-01T01:23:45.279Z,0.00
2018-12-01T01:24:45.294Z,0.00
2018-12-01T01:25:45.311Z,0.00
2018-12-01T01:26:45.330Z,0.00
2018-12-01T01:27:45.349Z,0.00
2018-12-01T01:28:45.364Z,0.00
2018-12-01T01:29:45.386Z,0.00
2018-12-01T01:30:45.401Z,0.00
2018-12-01T01:31:45.416Z,0.00
2018-12-01T01:32:45.432Z,0.00
2018-12-01T01:33:45.448Z,0.00
2018-12-01T01:34:45.470Z,0.00
2018-12-01T01:35:45.486Z,0.00
2018-12-01T01:36:45.500Z,0.00
2018-12-01T01:37:45.521Z,0.00
2018-12-01T01:38:45.534Z,0.00
2018-12-01T01:39:45.551Z,0.00
2018-12-01T01:40:45.570Z,0.00
2018-12-01T01:41:45.588Z,0.00
2018-12-01T01:42:45.604Z,0.00
2018-12-01T01:43:45.621Z,0.00
2018-12-01T01:44:45.639Z,0.00
2018-12-01T01:45:45.657Z,0.00
2018-12-01T01:46:45.674Z,0.00
2018-12-01T01:47:45.692Z,0.00
2018-12-01T01:48:45.706Z,0.00
2018-12-01T01:49:45.723Z,0.00
2018-12-01T01:50:45.740Z,0.00
2018-12-01T01:51:45.755Z,0.00
2018-12-01T01:52:45.779Z,0.00
2018-12-01T01:53:45.793Z,0.00
2018-12-01T01:54:45.809Z,0.00
2018-12-01T01:55:45.825Z,0.00
2018-12-01T01:56:45.850Z,0.00
2018-12-01T01:57:45.859Z,0.00
2018-12-01T01:58:45.876Z,0.00
2018-12-01T01:59:45.893Z,0.00
2018-12-01T02:00:45.909Z,0.00
2018-12-01T02:01:45.930Z,0.00
2018-12-01T02:02:45.947Z,0.00
2018-12-01T02:03:45.960Z,0.00
2018-12-01T02:04:45.976Z,0.00
2018-12-01T02:05:45.996Z,0.00
2018-12-01T02:06:46.017Z,0.00
2018-12-01T02:07:46.035Z,0.00
2018-12-01T02:08:46.048Z,0.00
2018-12-01T02:09:46.062Z,0.00
2018-12-01T02:10:46.080Z,0.00
2018-12-01T02:11:46.099Z,0.00
2018-12-01T02:12:46.114Z,0.00
2018-12-01T02:13:46.128Z,0.00
2018-12-01T02:14:46.146Z,0.00
2018-12-01T02:15:46.165Z,0.00
2018-12-01T02:16:46.180Z,0.00
2018-12-01T02:17:46.201Z,0.00
2018-12-01T02:18:46.220Z,0.00
2018-12-01T02:19:46.231Z,0.00
2018-12-01T02:20:46.249Z,0.00
2018-12-01T02:21:46.269Z,0.00
2018-12-01T02:22:46.297Z,0.00
2018-12-01T02:23:46.299Z,0.00
2018-12-01T02:24:46.314Z,0.00
2018-12-01T02:25:46.333Z,0.00
2018-12-01T02:26:46.359Z,0.00
2018-12-01T02:27:46.367Z,0.00
2018-12-01T02:28:46.381Z,0.00
2018-12-01T02:29:46.400Z,0.00
2018-12-01T02:30:46.416Z,0.00
2018-12-01T02:31:46.441Z,0.00
2018-12-01T02:32:46.455Z,0.00
2018-12-01T02:33:46.483Z,0.00
2018-12-01T02:34:46.494Z,0.00
2018-12-01T02:35:46.498Z,0.00
2018-12-01T02:36:46.520Z,0.00
2018-12-01T02:37:46.533Z,0.00
2018-12-01T02:38:46.554Z,0.00
2018-12-01T02:39:46.570Z,0.00
2018-12-01T02:40:46.587Z,0.00
2018-12-01T02:41:46.600Z,0.00
2018-12-01T02:42:46.616Z,0.00
2018-12-01T02:43:46.633Z,0.00
2018-12-01T02:44:46.653Z,0.00
2018-12-01T02:45:46.667Z,0.00
2018-12-01T02:46:46.684Z,0.00
2018-12-01T02:47:46.698Z,0.00
2018-12-01T02:48:46.716Z,0.00
2018-12-01T02:49:46.733Z,0.00
2018-12-01T02:50:46.753Z,0.00
2018-12-01T02:51:46.767Z,0.00
2018-12-01T02:52:46.781Z,0.00
2018-12-01T02:53:46.800Z,0.00
2018-12-01T02:54:46.826Z,0.00
2018-12-01T02:55:46.835Z,0.00
2018-12-01T02:56:46.849Z,0.00
2018-12-01T02:57:46.892Z,0.00
2018-12-01T02:58:46.882Z,0.00
2018-12-01T02:59:46.899Z,0.00
2018-12-01T03:00:46.915Z,0.00
2018-12-01T03:01:46.931Z,0.00
2018-12-01T03:02:46.953Z,0.00
2018-12-01T03:03:46.964Z,0.00
2018-12-01T03:04:46.985Z,0.00
2018-12-01T03:05:46.998Z,0.00
2018-12-01T03:06:47.016Z,0.00
2018-12-01T03:07:47.029Z,0.00
2018-12-01T03:08:47.046Z,0.00
2018-12-01T03:09:47.064Z,0.00
2018-12-01T03:10:47.081Z,0.00
2018-12-01T03:11:47.099Z,0.00
2018-12-01T03:12:47.116Z,0.00
2018-12-01T03:13:47.130Z,0.00
2018-12-01T03:14:47.147Z,0.00
2018-12-01T03:15:47.162Z,0.00
2018-12-01T03:16:47.181Z,0.00
2018-12-01T03:17:47.194Z,0.00
2018-12-01T03:18:47.215Z,0.00
2018-12-01T03:19:47.226Z,0.00
2018-12-01T03:20:47.244Z,0.00
2018-12-01T03:21:47.260Z,0.00
2018-12-01T03:22:47.281Z,0.00
2018-12-01T03:23:47.293Z,0.00
2018-12-01T03:24:47.310Z,0.00
2018-12-01T03:25:47.329Z,0.00
2018-12-01T03:26:47.346Z,0.00
2018-12-01T03:27:47.358Z,0.00
2018-12-01T03:28:47.376Z,0.00
2018-12-01T03:29:47.391Z,0.00
2018-12-01T03:30:47.410Z,0.00
2018-12-01T03:31:47.432Z,0.00
2018-12-01T03:32:47.446Z,0.00
2018-12-01T03:33:47.457Z,0.00
2018-12-01T03:34:47.474Z,0.00
2018-12-01T03:35:47.490Z,0.00
2018-12-01T03:36:47.505Z,0.00
2018-12-01T03:37:47.525Z,0.00
2018-12-01T03:38:47.540Z,0.00
2018-12-01T03:39:47.557Z,0.00
2018-12-01T03:40:47.576Z,0.00
2018-12-01T03:41:47.590Z,0.00
2018-12-01T03:42:47.607Z,0.00
2018-12-01T03:43:47.619Z,0.00
2018-12-01T03:44:47.637Z,0.00
2018-12-01T03:45:47.656Z,0.00
2018-12-01T03:46:47.669Z,0.00
2018-12-01T03:47:47.688Z,0.00
2018-12-01T03:48:47.704Z,0.00
2018-12-01T03:49:47.719Z,0.00
2018-12-01T03:50:47.734Z,0.00
2018-12-01T03:51:47.752Z,0.00
2018-12-01T03:52:47.765Z,0.00
2018-12-01T03:53:47.781Z,0.00
2018-12-01T03:54:47.799Z,0.00
2018-12-01T03:55:47.817Z,0.00
2018-12-01T03:56:47.833Z,0.00
2018-12-01T03:57:47.847Z,0.00
2018-12-01T03:58:47.864Z,0.00
2018-12-01T03:59:47.879Z,0.00
2018-12-01T04:00:47.897Z,0.00
2018-12-01T04:01:47.910Z,0.00
2018-12-01T04:02:47.929Z,0.00
2018-12-01T04:03:47.944Z,0.00
2018-12-01T04:04:47.964Z,0.00
2018-12-01T04:05:47.978Z,0.00
2018-12-01T04:06:47.995Z,0.00
2018-12-01T04:07:48.009Z,0.00
2018-12-01T04:08:48.024Z,0.00
2018-12-01T04:09:48.039Z,0.00
2018-12-01T04:10:48.059Z,0.00
2018-12-01T04:11:48.073Z,0.00
2018-12-01T04:12:48.091Z,0.00
2018-12-01T04:13:48.105Z,0.00
2018-12-01T04:14:48.123Z,0.00
2018-12-01T04:15:48.138Z,0.00
2018-12-01T04:16:48.153Z,0.00
2018-12-01T04:17:48.171Z,0.00
2018-12-01T04:18:48.186Z,0.00
2018-12-01T04:19:48.202Z,0.00
2018-12-01T04:20:48.217Z,0.00
2018-12-01T04:21:48.233Z,0.00
2018-12-01T04:22:48.250Z,0.00
2018-12-01T04:23:48.270Z,0.00
2018-12-01T04:24:48.282Z,0.00
2018-12-01T04:25:48.297Z,0.00
2018-12-01T04:26:48.315Z,0.00
2018-12-01T04:27:48.334Z,0.00
2018-12-01T04:28:48.345Z,0.00
2018-12-01T04:29:48.361Z,0.00
2018-12-01T04:30:48.376Z,0.00
2018-12-01T04:31:48.395Z,0.00
2018-12-01T04:32:48.409Z,0.00
2018-12-01T04:33:48.425Z,0.00
2018-12-01T04:34:48.442Z,0.00
2018-12-01T04:35:48.456Z,0.00
2018-12-01T04:36:48.471Z,0.00
2018-12-01T04:37:48.491Z,0.00
2018-12-01T04:38:48.509Z,0.00
2018-12-01T04:39:48.519Z,0.00
2018-12-01T04:40:48.535Z,0.00
2018-12-01T04:41:48.553Z,0.00
2018-12-01T04:42:48.570Z,0.00
2018-12-01T04:43:48.586Z,0.00
2018-12-01T04:44:48.602Z,0.00
2018-12-01T04:45:48.620Z,0.00
2018-12-01T04:46:48.630Z,0.00
2018-12-01T04:47:48.646Z,0.00
2018-12-01T04:48:48.663Z,0.00
2018-12-01T04:49:48.681Z,0.00
2018-12-01T04:50:48.693Z,0.00
2018-12-01T04:51:48.709Z,0.00
2018-12-01T04:52:48.726Z,0.00
2018-12-01T04:53:48.740Z,0.00
2018-12-01T04:54:48.758Z,0.00
2018-12-01T04:55:48.772Z,0.00
2018-12-01T04:56:48.790Z,0.00
2018-12-01T04:57:48.810Z,0.00
2018-12-01T04:58:48.821Z,0.00
2018-12-01T04:59:48.835Z,0.00
2018-12-01T05:00:48.853Z,0.00
2018-12-01T05:01:48.868Z,0.00
2018-12-01T05:02:48.883Z,0.00
2018-12-01T05:03:48.901Z,0.00
2018-12-01T05:04:48.918Z,0.00
2018-12-01T05:05:48.929Z,0.00
2018-12-01T05:06:48.946Z,0.00
2018-12-01T05:07:48.965Z,0.00
2018-12-01T05:08:49.442Z,0.00
2018-12-01T05:09:48.995Z,0.00
2018-12-01T05:10:49.010Z,0.00
2018-12-01T05:11:49.024Z,0.00
2018-12-01T05:12:49.043Z,0.00
2018-12-01T05:13:49.056Z,0.00
2018-12-01T05:14:49.076Z,0.00
2018-12-01T05:15:49.087Z,0.00
2018-12-01T05:16:49.104Z,0.00
2018-12-01T05:17:49.119Z,0.00
2018-12-01T05:18:49.137Z,0.00
2018-12-01T05:19:49.150Z,0.00
2018-12-01T05:20:49.165Z,0.00
2018-12-01T05:21:49.180Z,0.00
2018-12-01T05:22:49.198Z,0.00
2018-12-01T05:23:49.213Z,0.00
2018-12-01T05:24:49.229Z,0.00
2018-12-01T05:25:49.245Z,0.00
2018-12-01T05:26:49.261Z,0.00
2018-12-01T05:27:49.276Z,0.00
2018-12-01T05:28:49.292Z,0.00
2018-12-01T05:29:49.309Z,0.00
2018-12-01T05:30:49.322Z,0.00
2018-12-01T05:31:49.337Z,0.00
2018-12-01T05:32:49.356Z,0.00
2018-12-01T05:33:49.374Z,0.00
2018-12-01T05:34:49.385Z,0.00
2018-12-01T05:35:49.400Z,0.00
2018-12-01T05:36:49.416Z,0.00
2018-12-01T05:37:49.433Z,0.00
2018-12-01T05:38:49.446Z,0.00
2018-12-01T05:39:49.465Z,0.00
2018-12-01T05:40:49.480Z,0.00
2018-12-01T05:41:49.498Z,0.00
2018-12-01T05:42:49.511Z,0.00
2018-12-01T05:43:49.523Z,0.00
2018-12-01T05:44:49.542Z,0.00
2018-12-01T05:45:49.555Z,0.00
2018-12-01T05:46:49.578Z,0.00
2018-12-01T05:47:49.587Z,0.00
2018-12-01T05:48:49.602Z,0.00
2018-12-01T05:49:49.618Z,0.00
2018-12-01T05:50:49.633Z,0.00
2018-12-01T05:51:49.651Z,0.00
2018-12-01T05:52:49.662Z,0.00
2018-12-01T05:53:49.680Z,0.00
2018-12-01T05:54:49.696Z,0.00
2018-12-01T05:55:49.710Z,0.00
2018-12-01T05:56:49.729Z,0.00
2018-12-01T05:57:49.744Z,0.00
2018-12-01T05:58:49.758Z,0.00
2018-12-01T05:59:49.772Z,0.00
2018-12-01T06:00:49.788Z,0.00
2018-12-01T06:01:49.803Z,0.00
2018-12-01T06:02:49.824Z,0.00
2018-12-01T06:03:49.837Z,0.00
2018-12-01T06:04:49.851Z,0.00
2018-12-01T06:05:49.868Z,0.00
2018-12-01T06:06:49.880Z,0.00
2018-12-01T06:07:49.896Z,0.00
2018-12-01T06:08:49.910Z,0.00
2018-12-01T06:09:49.930Z,0.00
2018-12-01T06:10:49.948Z,0.00
2018-12-01T06:11:49.957Z,0.00
2018-12-01T06:12:49.976Z,0.00
2018-12-01T06:13:49.991Z,0.00
2018-12-01T06:14:50.008Z,0.00
2018-12-01T06:15:50.019Z,0.00
2018-12-01T06:16:50.037Z,0.00
2018-12-01T06:17:50.052Z,0.00
2018-12-01T06:18:50.067Z,0.00
2018-12-01T06:19:50.087Z,0.00
2018-12-01T06:20:50.098Z,0.00
2018-12-01T06:21:50.113Z,0.00
2018-12-01T06:22:50.126Z,0.00
2018-12-01T06:23:50.143Z,0.00
2018-12-01T06:24:50.164Z,0.00
2018-12-01T06:25:50.174Z,0.00
2018-12-01T06:26:50.191Z,5.63
2018-12-01T06:27:50.204Z,5.63
2018-12-01T06:28:50.220Z,5.63
2018-12-01T06:29:50.238Z,5.63
2018-12-01T06:30:50.251Z,5.63
2018-12-01T06:31:50.265Z,5.63
2018-12-01T06:32:50.284Z,5.63
2018-12-01T06:33:50.297Z,5.63
2018-12-01T06:34:50.312Z,5.63
2018-12-01T06:35:50.332Z,11.25
2018-12-01T06:36:50.340Z,11.25
2018-12-01T06:37:50.358Z,11.25
2018-12-01T06:38:50.377Z,11.25
2018-12-01T06:39:50.388Z,11.25
2018-12-01T06:40:50.403Z,11.25
2018-12-01T06:41:50.418Z,11.25
2018-12-01T06:42:50.436Z,16.88
2018-12-01T06:43:50.451Z,16.88
2018-12-01T06:44:50.470Z,16.88
2018-12-01T06:45:50.482Z,16.88
2018-12-01T06:46:50.496Z,16.88
2018-12-01T06:47:50.511Z,22.50
2018-12-01T06:48:50.527Z,22.50
2018-12-01T06:49:50.541Z,22.50
2018-12-01T06:50:50.558Z,22.50
2018-12-01T06:51:50.576Z,22.50
2018-12-01T06:52:50.587Z,28.13
2018-12-01T06:53:50.604Z,28.13
2018-12-01T06:54:50.620Z,28.13
2018-12-01T06:55:50.638Z,28.13
2018-12-01T06:56:50.651Z,33.75
2018-12-01T06:57:50.668Z,33.75
2018-12-01T06:58:50.680Z,33.75
2018-12-01T06:59:50.695Z,33.75
2018-12-01T07:00:50.716Z,39.38
2018-12-01T07:01:50.731Z,39.38
2018-12-01T07:02:50.744Z,39.38
2018-12-01T07:03:50.758Z,45.00
2018-12-01T07:04:50.774Z,45.00
2018-12-01T07:05:50.790Z,45.00
2018-12-01T07:06:50.808Z,50.63
2018-12-01T07:07:50.822Z,50.63
2018-12-01T07:08:50.835Z,56.25
2018-12-01T07:09:50.850Z,56.25
2018-12-01T07:10:50.912Z,56.25
2018-12-01T07:11:50.929Z,61.88
2018-12-01T07:12:50.946Z,67.50
2018-12-01T07:13:50.963Z,78.75
2018-12-01T07:14:50.975Z,95.63
2018-12-01T07:15:50.989Z,106.88
2018-12-01T07:16:51.005Z,112.50
2018-12-01T07:17:51.022Z,106.88
2018-12-01T07:18:51.035Z,112.50
2018-12-01T07:19:51.051Z,112.50
2018-12-01T07:20:51.065Z,118.13
2018-12-01T07:21:51.085Z,112.50
2018-12-01T07:22:51.098Z,118.13
2018-12-01T07:23:51.112Z,118.13
2018-12-01T07:24:51.128Z,129.38
2018-12-01T07:25:51.156Z,135.00
2018-12-01T07:26:51.163Z,129.38
2018-12-01T07:27:51.178Z,140.63
2018-12-01T07:28:51.198Z,151.88
2018-12-01T07:29:51.212Z,151.88
2018-12-01T07:30:51.228Z,180.00
2018-12-01T07:31:51.244Z,196.88
2018-12-01T07:32:51.264Z,202.50
2018-12-01T07:33:51.280Z,202.50
2018-12-01T07:34:51.296Z,185.63
2018-12-01T07:35:51.318Z,185.63
2018-12-01T07:36:51.328Z,185.63
2018-12-01T07:37:51.353Z,180.00
2018-12-01T07:38:51.363Z,168.75
2018-12-01T07:39:51.383Z,163.13
2018-12-01T07:40:51.400Z,168.75
2018-12-01T07:41:51.419Z,180.00
2018-12-01T07:42:51.434Z,180.00
2018-12-01T07:43:51.454Z,168.75
2018-12-01T07:44:51.471Z,168.75
2018-12-01T07:45:51.488Z,174.38
2018-12-01T07:46:51.505Z,163.13
2018-12-01T07:47:51.523Z,157.50
2018-12-01T07:48:51.541Z,180.00
2018-12-01T07:49:51.558Z,213.75
2018-12-01T07:50:51.576Z,230.63
2018-12-01T07:51:51.594Z,253.13
2018-12-01T07:52:51.611Z,275.63
2018-12-01T07:53:51.633Z,298.13
2018-12-01T07:54:51.652Z,303.75
2018-12-01T07:55:51.666Z,320.63
2018-12-01T07:56:51.687Z,326.25
2018-12-01T07:57:51.708Z,343.13
2018-12-01T07:58:51.723Z,348.75
2018-12-01T07:59:51.741Z,354.38
2018-12-01T08:00:51.761Z,360.00
2018-12-01T08:01:51.781Z,360.00
2018-12-01T08:02:51.799Z,376.88
2018-12-01T08:03:51.816Z,382.50
2018-12-01T08:04:51.836Z,388.13
2018-12-01T08:05:51.856Z,376.88
2018-12-01T08:06:51.876Z,365.63
2018-12-01T08:07:51.895Z,360.00
2018-12-01T08:08:51.915Z,360.00
2018-12-01T08:09:51.934Z,360.00
2018-12-01T08:10:51.957Z,354.38
2018-12-01T08:11:51.974Z,360.00
2018-12-01T08:12:51.994Z,337.50
2018-12-01T08:13:52.022Z,326.25
2018-12-01T08:14:52.033Z,326.25
2018-12-01T08:15:52.056Z,315.00
2018-12-01T08:16:52.073Z,309.38
2018-12-01T08:17:52.095Z,303.75
2018-12-01T08:18:52.119Z,292.50
2018-12-01T08:19:52.138Z,286.88
2018-12-01T08:20:52.629Z,281.25
2018-12-01T08:21:52.176Z,281.25
2018-12-01T08:22:52.199Z,258.75
2018-12-01T08:23:52.222Z,275.63
2018-12-01T08:24:52.242Z,219.38
2018-12-01T08:25:52.260Z,275.63
2018-12-01T08:26:52.282Z,264.38
2018-12-01T08:27:52.302Z,270.00
2018-12-01T08:28:52.322Z,264.38
2018-12-01T08:29:52.345Z,264.38
2018-12-01T08:30:52.364Z,275.63
2018-12-01T08:31:52.385Z,264.38
2018-12-01T08:32:52.407Z,258.75
2018-12-01T08:33:52.431Z,258.75
2018-12-01T08:34:52.451Z,253.13
2018-12-01T08:35:52.473Z,264.38
2018-12-01T08:36:52.495Z,264.38
2018-12-01T08:37:52.514Z,275.63
2018-12-01T08:38:52.536Z,286.88
2018-12-01T08:39:52.554Z,286.88
2018-12-01T08:40:52.580Z,286.88
2018-12-01T08:41:52.598Z,286.88
2018-12-01T08:42:52.626Z,258.75
2018-12-01T08:43:52.646Z,292.50
2018-12-01T08:44:52.663Z,292.50
2018-12-01T08:45:52.687Z,286.88
2018-12-01T08:46:52.707Z,275.63
2018-12-01T08:47:52.728Z,253.13
2018-12-01T08:48:52.755Z,213.75
2018-12-01T08:49:52.773Z,174.38
2018-12-01T08:50:52.793Z,168.75
2018-12-01T08:51:52.816Z,163.13
2018-12-01T08:52:52.834Z,163.13
2018-12-01T08:53:52.857Z,168.75
2018-12-01T08:54:52.877Z,180.00
2018-12-01T08:55:52.900Z,208.13
2018-12-01T08:56:52.918Z,230.63
2018-12-01T08:57:52.943Z,253.13
2018-12-01T08:58:52.963Z,258.75
2018-12-01T08:59:52.982Z,258.75
2018-12-01T09:00:53.009Z,258.75
2018-12-01T09:01:53.021Z,258.75
2018-12-01T09:02:53.045Z,264.38
2018-12-01T09:06:53.132Z,258.75
2018-12-01T09:07:53.149Z,264.38
2018-12-01T09:08:53.167Z,264.38
2018-12-01T09:09:53.192Z,270.00
2018-12-01T09:10:53.212Z,264.38
2018-12-01T09:11:53.238Z,270.00
2018-12-01T09:12:53.257Z,270.00
2018-12-01T09:13:53.279Z,270.00
2018-12-01T09:14:53.301Z,270.00
2018-12-01T09:15:53.320Z,275.63
2018-12-01T09:16:53.349Z,281.25
2018-12-01T09:17:53.366Z,275.63
2018-12-01T09:18:53.392Z,275.63
2018-12-01T09:19:53.410Z,275.63
2018-12-01T09:20:53.434Z,281.25
2018-12-01T09:21:53.456Z,281.25
2018-12-01T09:22:53.479Z,286.88
2018-12-01T09:23:53.501Z,286.88
2018-12-01T09:24:53.532Z,286.88
2018-12-01T09:25:53.547Z,286.88
2018-12-01T09:26:53.573Z,292.50
2018-12-01T09:27:53.592Z,292.50
2018-12-01T09:28:53.619Z,286.88
2018-12-01T09:29:53.640Z,286.88
2018-12-01T09:30:53.663Z,286.88
2018-12-01T09:31:53.687Z,281.25
2018-12-01T09:32:53.707Z,281.25
2018-12-01T09:33:53.734Z,281.25
2018-12-01T09:34:53.759Z,281.25
2018-12-01T09:35:53.780Z,281.25
2018-12-01T09:36:53.804Z,281.25
2018-12-01T09:37:53.826Z,275.63
2018-12-01T09:38:53.848Z,281.25
2018-12-01T09:39:53.877Z,281.25
2018-12-01T09:40:53.897Z,281.25
2018-12-01T09:41:53.922Z,286.88
2018-12-01T09:42:53.945Z,286.88
2018-12-01T09:43:53.969Z,286.88
2018-12-01T09:44:53.994Z,286.88
2018-12-01T09:45:54.018Z,292.50
2018-12-01T09:46:54.038Z,292.50
2018-12-01T09:47:54.061Z,315.00
2018-12-01T09:48:54.087Z,343.13
2018-12-01T09:49:54.109Z,337.50
2018-12-01T09:50:54.137Z,303.75
2018-12-01T09:51:54.157Z,281.25
2018-12-01T09:52:54.183Z,281.25
2018-12-01T09:53:54.208Z,275.63
2018-12-01T09:54:54.229Z,275.63
2018-12-01T09:55:54.253Z,275.63
2018-12-01T09:56:54.275Z,275.63
2018-12-01T09:57:54.302Z,270.00
2018-12-01T09:58:54.325Z,270.00
2018-12-01T09:59:54.348Z,270.00
2018-12-01T10:00:54.372Z,270.00
2018-12-01T10:01:54.397Z,264.38
2018-12-01T10:02:54.423Z,264.38
2018-12-01T10:03:54.446Z,264.38
2018-12-01T10:04:54.563Z,270.00
2018-12-01T10:05:54.495Z,264.38
2018-12-01T10:06:54.516Z,264.38
2018-12-01T10:07:54.542Z,264.38
2018-12-01T10:08:54.564Z,258.75
2018-12-01T10:09:54.587Z,258.75
2018-12-01T10:10:54.612Z,258.75
2018-12-01T10:11:54.635Z,258.75
2018-12-01T10:12:54.878Z,258.75
2018-12-01T10:13:54.693Z,264.38
2018-12-01T10:14:54.708Z,264.38
2018-12-01T10:15:54.729Z,264.38
2018-12-01T10:16:54.754Z,264.38
2018-12-01T10:17:54.781Z,264.38
2018-12-01T10:18:56.560Z,264.38
2018-12-01T10:19:54.826Z,264.38
2018-12-01T10:20:54.850Z,264.38
2018-12-01T10:21:54.877Z,264.38
2018-12-01T10:22:54.901Z,264.38
2018-12-01T10:23:54.924Z,264.38
2018-12-01T10:24:54.949Z,264.38
2018-12-01T10:25:54.971Z,264.38
2018-12-01T10:26:54.994Z,270.00
2018-12-01T10:27:55.017Z,264.38
2018-12-01T10:28:55.046Z,264.38
2018-12-01T10:29:55.067Z,264.38
2018-12-01T10:30:55.089Z,264.38
2018-12-01T10:31:55.113Z,264.38
2018-12-01T10:32:55.134Z,258.75
2018-12-01T10:33:55.162Z,264.38
2018-12-01T10:34:55.182Z,264.38
2018-12-01T10:35:55.204Z,264.38
2018-12-01T10:36:55.228Z,258.75
2018-12-01T10:37:55.254Z,258.75
2018-12-01T10:38:55.278Z,258.75
2018-12-01T10:39:55.298Z,258.75
2018-12-01T10:40:55.324Z,258.75
2018-12-01T10:41:56.123Z,258.75
2018-12-01T10:42:55.370Z,258.75
2018-12-01T10:43:55.393Z,264.38
2018-12-01T10:44:55.414Z,264.38
2018-12-01T10:45:55.438Z,270.00
2018-12-01T10:46:55.464Z,270.00
2018-12-01T10:47:55.485Z,270.00
2018-12-01T10:48:55.508Z,270.00
2018-12-01T10:49:55.532Z,275.63
2018-12-01T10:50:55.554Z,275.63
2018-12-01T10:51:55.577Z,281.25
2018-12-01T10:52:55.603Z,286.88
2018-12-01T10:53:55.624Z,292.50
2018-12-01T10:54:55.648Z,292.50
2018-12-01T10:55:55.669Z,292.50
2018-12-01T10:56:55.693Z,298.13
2018-12-01T10:57:55.724Z,292.50
2018-12-01T10:58:55.740Z,298.13
2018-12-01T10:59:55.769Z,292.50
2018-12-01T11:00:55.788Z,270.00
2018-12-01T11:01:55.810Z,253.13
2018-12-01T11:02:55.861Z,219.38
2018-12-01T11:03:55.855Z,196.88
2018-12-01T11:04:55.881Z,202.50
2018-12-01T11:05:55.903Z,191.25
2018-12-01T11:06:55.926Z,174.38
2018-12-01T11:07:55.947Z,180.00
2018-12-01T11:08:55.970Z,230.63
2018-12-01T11:09:55.992Z,298.13
2018-12-01T11:10:56.013Z,275.63
2018-12-01T11:11:56.033Z,264.38
2018-12-01T11:12:56.057Z,326.25
2018-12-01T11:13:56.081Z,376.88
2018-12-01T11:14:56.105Z,416.25
2018-12-01T11:15:56.123Z,461.25
2018-12-01T11:16:56.147Z,500.63
2018-12-01T11:17:56.166Z,511.88
2018-12-01T11:18:56.190Z,517.50
2018-12-01T11:19:56.212Z,483.75
2018-12-01T11:20:56.234Z,337.50
2018-12-01T11:21:56.258Z,196.88
2018-12-01T11:22:58.091Z,168.75
2018-12-01T11:23:56.300Z,163.13
2018-12-01T11:24:56.325Z,163.13
2018-12-01T11:25:56.348Z,163.13
2018-12-01T11:26:56.371Z,163.13
2018-12-01T11:27:56.389Z,163.13
2018-12-01T11:28:56.410Z,163.13
2018-12-01T11:29:56.436Z,163.13
2018-12-01T11:30:56.454Z,163.13
2018-12-01T11:31:56.477Z,163.13
2018-12-01T11:32:56.497Z,163.13
2018-12-01T11:33:56.518Z,163.13
2018-12-01T11:34:56.537Z,157.50
2018-12-01T11:35:56.559Z,157.50
2018-12-01T11:36:56.583Z,157.50
2018-12-01T11:37:56.601Z,157.50
2018-12-01T11:38:56.621Z,157.50
2018-12-01T11:39:56.640Z,157.50
2018-12-01T11:40:56.664Z,157.50
2018-12-01T11:41:56.684Z,157.50
2018-12-01T11:42:56.706Z,157.50
2018-12-01T11:43:56.729Z,157.50
2018-12-01T11:44:56.940Z,157.50
2018-12-01T11:45:56.770Z,151.88
2018-12-01T11:46:56.785Z,151.88
2018-12-01T11:47:56.804Z,151.88
2018-12-01T11:48:56.827Z,151.88
2018-12-01T11:49:56.846Z,151.88
2018-12-01T11:50:56.871Z,151.88
2018-12-01T11:51:56.887Z,151.88
2018-12-01T11:52:56.907Z,151.88
2018-12-01T11:53:56.930Z,146.25
2018-12-01T11:54:56.947Z,146.25
2018-12-01T11:55:56.963Z,146.25
2018-12-01T11:56:56.984Z,146.25
2018-12-01T11:57:57.004Z,146.25
2018-12-01T11:58:57.028Z,140.63
2018-12-01T11:59:57.047Z,146.25
2018-12-01T12:00:57.064Z,146.25
2018-12-01T12:02:00.495Z,140.63
2018-12-01T12:02:57.108Z,140.63
2018-12-01T12:03:57.121Z,140.63
2018-12-01T12:04:57.141Z,140.63
2018-12-01T12:05:57.162Z,140.63
2018-12-01T12:06:57.182Z,135.00
2018-12-01T12:07:57.202Z,135.00
2018-12-01T12:08:57.219Z,135.00
2018-12-01T12:09:57.237Z,135.00
2018-12-01T12:10:57.262Z,135.00
2018-12-01T12:11:57.275Z,135.00
2018-12-01T12:12:57.296Z,129.38
2018-12-01T12:13:57.315Z,129.38
2018-12-01T12:14:57.335Z,129.38
2018-12-01T12:15:57.354Z,129.38
2018-12-01T12:16:57.374Z,129.38
2018-12-01T12:17:57.393Z,129.38
2018-12-01T12:18:57.413Z,123.75
2018-12-01T12:19:57.432Z,123.75
2018-12-01T12:20:57.449Z,123.75
2018-12-01T12:21:57.471Z,123.75
2018-12-01T12:22:57.489Z,123.75
2018-12-01T12:23:57.508Z,123.75
2018-12-01T12:24:57.528Z,118.13
2018-12-01T12:25:57.547Z,118.13
2018-12-01T12:26:57.572Z,118.13
2018-12-01T12:27:57.583Z,118.13
2018-12-01T12:28:57.603Z,118.13
2018-12-01T12:29:57.622Z,118.13
2018-12-01T12:30:57.646Z,112.50
2018-12-01T12:31:57.662Z,112.50
2018-12-01T12:32:57.679Z,112.50
2018-12-01T12:33:57.699Z,112.50
2018-12-01T12:34:57.718Z,112.50
2018-12-01T12:35:57.736Z,106.88
2018-12-01T12:36:57.756Z,106.88
2018-12-01T12:37:57.775Z,106.88
2018-12-01T12:38:57.794Z,106.88
2018-12-01T12:39:57.810Z,106.88
2018-12-01T12:40:57.829Z,106.88
2018-12-01T12:41:57.849Z,101.25
2018-12-01T12:42:57.873Z,101.25
2018-12-01T12:43:57.885Z,101.25
2018-12-01T12:44:57.906Z,101.25
2018-12-01T12:45:57.925Z,101.25
2018-12-01T12:46:57.945Z,95.63
2018-12-01T12:47:57.961Z,95.63
2018-12-01T12:48:57.984Z,95.63
2018-12-01T12:49:57.998Z,95.63
2018-12-01T12:50:58.022Z,90.00
2018-12-01T12:51:58.036Z,90.00
2018-12-01T12:52:58.056Z,90.00
2018-12-01T12:53:58.076Z,90.00
2018-12-01T12:54:58.093Z,90.00
2018-12-01T12:55:58.112Z,84.38
2018-12-01T12:56:58.131Z,84.38
2018-12-01T12:57:58.153Z,84.38